Terminal Aerodrome Forecast
Issued by NWS Burlington, VT

Home | Current Version | Previous Version | Text Only | Print | Product List | Glossary On
Versions: 1 2 3 4 5 6 7 8 9 10 11 12 13 14 15 16
000
FTUS41 KBTV 231731
TAFBTV
TAF
KBTV 231731Z 2318/2418 19012G20KT P6SM VCSH SCT050 BKN090
      TEMPO 2318/2322 3SM +SHRA BR SCT035 BKN050
     FM232200 20007KT 6SM SHRA BR SCT050 BKN070
     FM240500 23005KT P6SM VCSH OVC025
     FM241300 30008KT P6SM SCT050 BKN120=

USA.gov is the U.S. government's official web portal to all federal, state and local government web resources and services.